sensor_id;sensor_type;location;lat;lon;timestamp;temperature;humidity
1786;DHT22;890;48.158;11.540;2023-04-09T00:00:37;7.40;89.50
1786;DHT22;890;48.158;11.540;2023-04-09T00:03:03;7.40;89.50
1786;DHT22;890;48.158;11.540;2023-04-09T00:05:28;7.40;89.30
1786;DHT22;890;48.158;11.540;2023-04-09T00:07:54;7.40;89.30
1786;DHT22;890;48.158;11.540;2023-04-09T00:10:20;7.40;89.30
1786;DHT22;890;48.158;11.540;2023-04-09T00:12:46;7.50;89.20
1786;DHT22;890;48.158;11.540;2023-04-09T00:15:11;7.50;89.00
1786;DHT22;890;48.158;11.540;2023-04-09T00:17:37;7.40;89.00
1786;DHT22;890;48.158;11.540;2023-04-09T00:20:03;7.40;88.90
1786;DHT22;890;48.158;11.540;2023-04-09T00:22:29;7.40;89.00
1786;DHT22;890;48.158;11.540;2023-04-09T00:24:54;7.40;89.10
1786;DHT22;890;48.158;11.540;2023-04-09T00:27:20;7.40;89.10
1786;DHT22;890;48.158;11.540;2023-04-09T00:29:46;7.40;89.00
1786;DHT22;890;48.158;11.540;2023-04-09T00:32:12;7.40;88.70
1786;DHT22;890;48.158;11.540;2023-04-09T00:34:37;7.40;88.60
1786;DHT22;890;48.158;11.540;2023-04-09T00:37:03;7.40;88.50
1786;DHT22;890;48.158;11.540;2023-04-09T00:39:30;7.40;88.40
1786;DHT22;890;48.158;11.540;2023-04-09T00:41:59;7.40;88.50
1786;DHT22;890;48.158;11.540;2023-04-09T00:44:27;7.30;88.40
1786;DHT22;890;48.158;11.540;2023-04-09T00:46:53;7.40;88.30
1786;DHT22;890;48.158;11.540;2023-04-09T00:49:19;7.40;88.30
1786;DHT22;890;48.158;11.540;2023-04-09T00:51:45;7.40;88.10
1786;DHT22;890;48.158;11.540;2023-04-09T00:54:12;7.40;87.90
1786;DHT22;890;48.158;11.540;2023-04-09T00:56:37;7.40;87.70
1786;DHT22;890;48.158;11.540;2023-04-09T00:59:03;7.40;87.50
1786;DHT22;890;48.158;11.540;2023-04-09T01:01:29;7.40;87.50
1786;DHT22;890;48.158;11.540;2023-04-09T01:03:55;7.40;87.30
1786;DHT22;890;48.158;11.540;2023-04-09T01:06:31;7.40;87.10
1786;DHT22;890;48.158;11.540;2023-04-09T01:15:05;7.40;86.70
1786;DHT22;890;48.158;11.540;2023-04-09T01:17:40;7.40;86.40
1786;DHT22;890;48.158;11.540;2023-04-09T01:20:15;7.50;86.20
1786;DHT22;890;48.158;11.540;2023-04-09T01:23:06;7.40;85.70
1786;DHT22;890;48.158;11.540;2023-04-09T01:28:33;7.40;85.70
1786;DHT22;890;48.158;11.540;2023-04-09T01:31:08;7.40;85.60
1786;DHT22;890;48.158;11.540;2023-04-09T01:33:37;7.30;85.50
1786;DHT22;890;48.158;11.540;2023-04-09T01:36:04;7.40;85.80
1786;DHT22;890;48.158;11.540;2023-04-09T01:38:31;7.40;85.80
1786;DHT22;890;48.158;11.540;2023-04-09T01:40:58;7.50;85.90
1786;DHT22;890;48.158;11.540;2023-04-09T01:43:26;7.40;85.70
1786;DHT22;890;48.158;11.540;2023-04-09T01:45:53;7.50;85.60
1786;DHT22;890;48.158;11.540;2023-04-09T01:48:19;7.50;85.40
1786;DHT22;890;48.158;11.540;2023-04-09T01:50:45;7.50;85.30
1786;DHT22;890;48.158;11.540;2023-04-09T01:53:12;7.60;85.10
1786;DHT22;890;48.158;11.540;2023-04-09T01:55:37;7.60;84.80
1786;DHT22;890;48.158;11.540;2023-04-09T01:58:03;7.60;84.50
1786;DHT22;890;48.158;11.540;2023-04-09T02:00:38;7.60;84.30
1786;DHT22;890;48.158;11.540;2023-04-09T02:03:20;7.60;84.00
1786;DHT22;890;48.158;11.540;2023-04-09T02:06:12;7.50;83.50
1786;DHT22;890;48.158;11.540;2023-04-09T02:08:43;7.50;83.70
1786;DHT22;890;48.158;11.540;2023-04-09T02:11:09;7.60;84.00
1786;DHT22;890;48.158;11.540;2023-04-09T02:13:36;7.60;84.10
1786;DHT22;890;48.158;11.540;2023-04-09T02:16:04;7.50;84.30
1786;DHT22;890;48.158;11.540;2023-04-09T02:18:30;7.50;84.50
1786;DHT22;890;48.158;11.540;2023-04-09T02:20:57;7.50;84.30
1786;DHT22;890;48.158;11.540;2023-04-09T02:23:24;7.50;84.40
1786;DHT22;890;48.158;11.540;2023-04-09T02:25:50;7.60;84.40
1786;DHT22;890;48.158;11.540;2023-04-09T02:28:17;7.60;84.20
1786;DHT22;890;48.158;11.540;2023-04-09T02:30:42;7.60;84.20
1786;DHT22;890;48.158;11.540;2023-04-09T02:33:08;7.60;84.30
1786;DHT22;890;48.158;11.540;2023-04-09T02:35:34;7.60;84.30
1786;DHT22;890;48.158;11.540;2023-04-09T02:38:00;7.60;84.30
1786;DHT22;890;48.158;11.540;2023-04-09T02:40:25;7.60;84.40
1786;DHT22;890;48.158;11.540;2023-04-09T02:42:52;7.60;84.60
1786;DHT22;890;48.158;11.540;2023-04-09T02:45:17;7.50;84.70
1786;DHT22;890;48.158;11.540;2023-04-09T02:47:43;7.50;85.00
1786;DHT22;890;48.158;11.540;2023-04-09T02:50:09;7.50;85.20
1786;DHT22;890;48.158;11.540;2023-04-09T02:52:35;7.40;85.30
1786;DHT22;890;48.158;11.540;2023-04-09T02:55:00;7.40;85.40
1786;DHT22;890;48.158;11.540;2023-04-09T02:57:26;7.40;85.50
1786;DHT22;890;48.158;11.540;2023-04-09T02:59:52;7.40;85.60
1786;DHT22;890;48.158;11.540;2023-04-09T03:02:17;7.40;85.20
1786;DHT22;890;48.158;11.540;2023-04-09T03:04:43;7.40;85.30
1786;DHT22;890;48.158;11.540;2023-04-09T03:07:08;7.30;85.30
1786;DHT22;890;48.158;11.540;2023-04-09T03:09:34;7.30;85.40
1786;DHT22;890;48.158;11.540;2023-04-09T03:11:59;7.40;85.40
1786;DHT22;890;48.158;11.540;2023-04-09T03:14:26;7.40;85.30
1786;DHT22;890;48.158;11.540;2023-04-09T03:16:52;7.40;85.30
1786;DHT22;890;48.158;11.540;2023-04-09T03:19:17;7.40;85.10
1786;DHT22;890;48.158;11.540;2023-04-09T03:21:43;7.40;85.10
1786;DHT22;890;48.158;11.540;2023-04-09T03:24:09;7.30;85.10
1786;DHT22;890;48.158;11.540;2023-04-09T03:26:34;7.40;85.50
1786;DHT22;890;48.158;11.540;2023-04-09T03:29:02;7.40;85.60
1786;DHT22;890;48.158;11.540;2023-04-09T03:31:27;7.40;85.60
1786;DHT22;890;48.158;11.540;2023-04-09T03:33:53;7.40;85.60
1786;DHT22;890;48.158;11.540;2023-04-09T03:36:18;7.40;85.60
1786;DHT22;890;48.158;11.540;2023-04-09T03:38:44;7.40;85.70
1786;DHT22;890;48.158;11.540;2023-04-09T03:41:09;7.40;85.50
1786;DHT22;890;48.158;11.540;2023-04-09T03:43:35;7.40;85.20
1786;DHT22;890;48.158;11.540;2023-04-09T03:46:01;7.40;85.20
1786;DHT22;890;48.158;11.540;2023-04-09T03:48:26;7.40;85.30
1786;DHT22;890;48.158;11.540;2023-04-09T03:50:52;7.40;85.20
1786;DHT22;890;48.158;11.540;2023-04-09T03:53:18;7.30;85.10
1786;DHT22;890;48.158;11.540;2023-04-09T03:55:43;7.30;86.10
1786;DHT22;890;48.158;11.540;2023-04-09T03:58:09;7.20;85.20
1786;DHT22;890;48.158;11.540;2023-04-09T04:00:35;7.20;85.20
1786;DHT22;890;48.158;11.540;2023-04-09T04:03:01;7.10;85.10
1786;DHT22;890;48.158;11.540;2023-04-09T04:05:26;7.00;85.10
1786;DHT22;890;48.158;11.540;2023-04-09T04:07:52;6.90;85.20
1786;DHT22;890;48.158;11.540;2023-04-09T04:10:18;6.80;85.40
1786;DHT22;890;48.158;11.540;2023-04-09T04:12:44;6.80;85.60
1786;DHT22;890;48.158;11.540;2023-04-09T04:15:09;6.70;85.70
1786;DHT22;890;48.158;11.540;2023-04-09T04:17:35;6.60;85.80
1786;DHT22;890;48.158;11.540;2023-04-09T04:20:00;6.60;86.20
1786;DHT22;890;48.158;11.540;2023-04-09T04:22:26;6.60;86.30
1786;DHT22;890;48.158;11.540;2023-04-09T04:24:51;6.60;86.30
1786;DHT22;890;48.158;11.540;2023-04-09T04:27:17;6.70;86.30
1786;DHT22;890;48.158;11.540;2023-04-09T04:29:43;6.70;86.10
1786;DHT22;890;48.158;11.540;2023-04-09T04:32:08;6.70;86.20
1786;DHT22;890;48.158;11.540;2023-04-09T04:34:34;6.70;86.40
1786;DHT22;890;48.158;11.540;2023-04-09T04:36:59;6.70;86.50
1786;DHT22;890;48.158;11.540;2023-04-09T04:39:25;6.70;86.40
1786;DHT22;890;48.158;11.540;2023-04-09T04:41:50;6.60;86.40
1786;DHT22;890;48.158;11.540;2023-04-09T04:44:16;6.60;86.80
1786;DHT22;890;48.158;11.540;2023-04-09T04:46:41;6.60;86.90
1786;DHT22;890;48.158;11.540;2023-04-09T04:49:07;6.70;86.90
1786;DHT22;890;48.158;11.540;2023-04-09T04:51:32;6.70;86.70
1786;DHT22;890;48.158;11.540;2023-04-09T04:53:58;6.80;86.60
1786;DHT22;890;48.158;11.540;2023-04-09T04:56:23;6.80;86.40
1786;DHT22;890;48.158;11.540;2023-04-09T04:58:49;6.90;86.40
1786;DHT22;890;48.158;11.540;2023-04-09T05:01:14;7.00;86.40
1786;DHT22;890;48.158;11.540;2023-04-09T05:03:40;7.00;86.50
1786;DHT22;890;48.158;11.540;2023-04-09T05:06:06;7.00;86.60
1786;DHT22;890;48.158;11.540;2023-04-09T05:08:31;7.10;86.70
1786;DHT22;890;48.158;11.540;2023-04-09T05:10:57;7.10;86.50
1786;DHT22;890;48.158;11.540;2023-04-09T05:13:22;7.10;86.10
1786;DHT22;890;48.158;11.540;2023-04-09T05:15:49;7.10;86.10
1786;DHT22;890;48.158;11.540;2023-04-09T05:18:15;7.10;86.20
1786;DHT22;890;48.158;11.540;2023-04-09T05:20:40;7.00;85.90
1786;DHT22;890;48.158;11.540;2023-04-09T05:23:06;7.00;85.80
1786;DHT22;890;48.158;11.540;2023-04-09T05:25:34;7.00;85.80
1786;DHT22;890;48.158;11.540;2023-04-09T05:28:00;6.90;85.80
1786;DHT22;890;48.158;11.540;2023-04-09T05:30:25;6.90;85.70
1786;DHT22;890;48.158;11.540;2023-04-09T05:32:51;7.00;86.00
1786;DHT22;890;48.158;11.540;2023-04-09T05:35:17;6.90;86.10
1786;DHT22;890;48.158;11.540;2023-04-09T05:37:42;6.90;86.20
1786;DHT22;890;48.158;11.540;2023-04-09T05:40:08;6.90;86.20
1786;DHT22;890;48.158;11.540;2023-04-09T05:42:34;6.80;86.10
1786;DHT22;890;48.158;11.540;2023-04-09T05:45:00;6.90;86.30
1786;DHT22;890;48.158;11.540;2023-04-09T05:47:26;6.80;86.30
1786;DHT22;890;48.158;11.540;2023-04-09T05:49:52;6.80;86.60
1786;DHT22;890;48.158;11.540;2023-04-09T05:52:17;6.90;86.70
1786;DHT22;890;48.158;11.540;2023-04-09T05:54:44;7.00;87.20
1786;DHT22;890;48.158;11.540;2023-04-09T05:57:09;7.10;87.70
1786;DHT22;890;48.158;11.540;2023-04-09T05:59:35;7.20;87.90
1786;DHT22;890;48.158;11.540;2023-04-09T06:02:00;7.30;88.00
1786;DHT22;890;48.158;11.540;2023-04-09T06:04:26;7.40;87.90
1786;DHT22;890;48.158;11.540;2023-04-09T06:06:52;7.50;87.80
1786;DHT22;890;48.158;11.540;2023-04-09T06:09:17;7.60;88.00
1786;DHT22;890;48.158;11.540;2023-04-09T06:11:43;7.70;88.20
1786;DHT22;890;48.158;11.540;2023-04-09T06:14:08;7.80;88.20
1786;DHT22;890;48.158;11.540;2023-04-09T06:16:36;8.00;87.90
1786;DHT22;890;48.158;11.540;2023-04-09T06:19:02;8.10;87.50
1786;DHT22;890;48.158;11.540;2023-04-09T06:21:27;8.20;87.30
1786;DHT22;890;48.158;11.540;2023-04-09T06:23:53;8.60;87.50
1786;DHT22;890;48.158;11.540;2023-04-09T06:26:18;8.40;86.60
1786;DHT22;890;48.158;11.540;2023-04-09T06:28:44;8.50;86.00
1786;DHT22;890;48.158;11.540;2023-04-09T06:31:10;8.60;85.50
1786;DHT22;890;48.158;11.540;2023-04-09T06:33:35;8.60;84.80
1786;DHT22;890;48.158;11.540;2023-04-09T06:36:01;8.60;84.30
1786;DHT22;890;48.158;11.540;2023-04-09T06:38:26;8.50;83.70
1786;DHT22;890;48.158;11.540;2023-04-09T06:40:52;8.50;83.60
1786;DHT22;890;48.158;11.540;2023-04-09T06:43:17;8.60;84.00
1786;DHT22;890;48.158;11.540;2023-04-09T06:45:43;8.60;84.10
1786;DHT22;890;48.158;11.540;2023-04-09T06:48:09;8.80;84.00
1786;DHT22;890;48.158;11.540;2023-04-09T06:50:35;8.90;83.20
1786;DHT22;890;48.158;11.540;2023-04-09T06:53:01;8.90;82.70
1786;DHT22;890;48.158;11.540;2023-04-09T06:55:26;9.10;82.50
1786;DHT22;890;48.158;11.540;2023-04-09T06:57:52;9.20;82.40
1786;DHT22;890;48.158;11.540;2023-04-09T07:00:18;9.30;82.00
1786;DHT22;890;48.158;11.540;2023-04-09T07:02:43;9.40;81.40
1786;DHT22;890;48.158;11.540;2023-04-09T07:05:09;9.40;81.20
1786;DHT22;890;48.158;11.540;2023-04-09T07:07:35;9.50;81.00
1786;DHT22;890;48.158;11.540;2023-04-09T07:10:00;9.60;80.60
1786;DHT22;890;48.158;11.540;2023-04-09T07:12:30;9.70;80.00
1786;DHT22;890;48.158;11.540;2023-04-09T07:15:09;9.70;79.40
1786;DHT22;890;48.158;11.540;2023-04-09T07:17:34;9.70;78.60
1786;DHT22;890;48.158;11.540;2023-04-09T07:20:00;9.70;78.60
1786;DHT22;890;48.158;11.540;2023-04-09T07:22:28;9.70;78.30
1786;DHT22;890;48.158;11.540;2023-04-09T07:24:54;9.70;78.40
1786;DHT22;890;48.158;11.540;2023-04-09T07:27:22;9.80;78.20
1786;DHT22;890;48.158;11.540;2023-04-09T07:29:48;9.90;78.10
1786;DHT22;890;48.158;11.540;2023-04-09T07:32:14;10.00;76.60
1786;DHT22;890;48.158;11.540;2023-04-09T07:34:40;10.10;75.70
1786;DHT22;890;48.158;11.540;2023-04-09T07:37:06;10.10;75.50
1786;DHT22;890;48.158;11.540;2023-04-09T07:39:31;10.20;75.40
1786;DHT22;890;48.158;11.540;2023-04-09T07:41:57;10.20;74.80
1786;DHT22;890;48.158;11.540;2023-04-09T07:44:26;10.20;74.50
1786;DHT22;890;48.158;11.540;2023-04-09T07:46:52;10.20;74.50
1786;DHT22;890;48.158;11.540;2023-04-09T07:49:17;10.30;74.50
1786;DHT22;890;48.158;11.540;2023-04-09T07:51:43;10.40;74.30
1786;DHT22;890;48.158;11.540;2023-04-09T07:54:08;10.50;74.10
1786;DHT22;890;48.158;11.540;2023-04-09T07:56:34;10.50;73.50
1786;DHT22;890;48.158;11.540;2023-04-09T07:59:00;10.50;73.30
1786;DHT22;890;48.158;11.540;2023-04-09T08:01:26;10.60;73.30
1786;DHT22;890;48.158;11.540;2023-04-09T08:03:52;10.70;72.90
1786;DHT22;890;48.158;11.540;2023-04-09T08:06:17;10.70;72.60
1786;DHT22;890;48.158;11.540;2023-04-09T08:08:43;10.80;72.10
1786;DHT22;890;48.158;11.540;2023-04-09T08:11:09;10.80;71.60
1786;DHT22;890;48.158;11.540;2023-04-09T08:13:34;10.80;71.20
1786;DHT22;890;48.158;11.540;2023-04-09T08:16:00;10.80;70.70
1786;DHT22;890;48.158;11.540;2023-04-09T08:18:26;10.80;70.30
1786;DHT22;890;48.158;11.540;2023-04-09T08:20:52;10.80;70.90
1786;DHT22;890;48.158;11.540;2023-04-09T08:23:18;11.00;71.30
1786;DHT22;890;48.158;11.540;2023-04-09T08:25:44;11.20;70.10
1786;DHT22;890;48.158;11.540;2023-04-09T08:28:09;11.20;69.10
1786;DHT22;890;48.158;11.540;2023-04-09T08:30:35;11.10;68.60
1786;DHT22;890;48.158;11.540;2023-04-09T08:33:01;11.10;68.50
1786;DHT22;890;48.158;11.540;2023-04-09T08:35:26;11.10;68.40
1786;DHT22;890;48.158;11.540;2023-04-09T08:37:55;12.20;69.80
1786;DHT22;890;48.158;11.540;2023-04-09T08:40:21;11.30;69.20
1786;DHT22;890;48.158;11.540;2023-04-09T08:42:52;11.50;68.90
1786;DHT22;890;48.158;11.540;2023-04-09T08:45:18;12.40;69.00
1786;DHT22;890;48.158;11.540;2023-04-09T08:47:44;11.70;68.00
1786;DHT22;890;48.158;11.540;2023-04-09T08:50:13;11.70;67.10
1786;DHT22;890;48.158;11.540;2023-04-09T08:52:39;11.50;66.70
1786;DHT22;890;48.158;11.540;2023-04-09T08:55:06;11.60;66.80
1786;DHT22;890;48.158;11.540;2023-04-09T08:57:39;11.60;67.10
1786;DHT22;890;48.158;11.540;2023-04-09T09:00:05;11.70;66.70
1786;DHT22;890;48.158;11.540;2023-04-09T09:02:31;11.80;67.00
1786;DHT22;890;48.158;11.540;2023-04-09T09:04:57;13.40;68.40
1786;DHT22;890;48.158;11.540;2023-04-09T09:07:27;11.90;65.90
1786;DHT22;890;48.158;11.540;2023-04-09T09:09:57;11.90;65.20
1786;DHT22;890;48.158;11.540;2023-04-09T09:12:38;11.90;63.80
1786;DHT22;890;48.158;11.540;2023-04-09T09:15:28;11.70;63.60
1786;DHT22;890;48.158;11.540;2023-04-09T09:17:55;11.90;64.50
1786;DHT22;890;48.158;11.540;2023-04-09T09:20:21;12.00;65.30
1786;DHT22;890;48.158;11.540;2023-04-09T09:22:49;12.20;69.20
1786;DHT22;890;48.158;11.540;2023-04-09T09:25:15;13.00;81.20
1786;DHT22;890;48.158;11.540;2023-04-09T09:27:41;14.30;89.30
1786;DHT22;890;48.158;11.540;2023-04-09T09:30:07;15.10;82.50
1786;DHT22;890;48.158;11.540;2023-04-09T09:32:35;15.60;74.30
1786;DHT22;890;48.158;11.540;2023-04-09T09:35:03;16.20;74.40
1786;DHT22;890;48.158;11.540;2023-04-09T09:37:29;16.30;67.90
1786;DHT22;890;48.158;11.540;2023-04-09T09:39:55;16.30;61.80
1786;DHT22;890;48.158;11.540;2023-04-09T09:42:21;15.60;60.40
1786;DHT22;890;48.158;11.540;2023-04-09T09:44:47;15.50;60.60
1786;DHT22;890;48.158;11.540;2023-04-09T09:47:14;15.20;58.40
1786;DHT22;890;48.158;11.540;2023-04-09T09:49:42;14.80;58.10
1786;DHT22;890;48.158;11.540;2023-04-09T09:52:09;14.60;57.60
1786;DHT22;890;48.158;11.540;2023-04-09T09:54:39;14.40;57.00
1786;DHT22;890;48.158;11.540;2023-04-09T09:57:08;14.10;56.50
1786;DHT22;890;48.158;11.540;2023-04-09T09:59:37;15.30;61.00
1786;DHT22;890;48.158;11.540;2023-04-09T10:02:05;14.70;61.20
1786;DHT22;890;48.158;11.540;2023-04-09T10:04:34;16.90;60.90
1786;DHT22;890;48.158;11.540;2023-04-09T10:07:00;14.80;58.00
1786;DHT22;890;48.158;11.540;2023-04-09T10:09:29;15.00;58.20
1786;DHT22;890;48.158;11.540;2023-04-09T10:11:57;15.10;57.40
1786;DHT22;890;48.158;11.540;2023-04-09T10:14:23;15.00;55.90
1786;DHT22;890;48.158;11.540;2023-04-09T10:16:50;15.00;55.60
1786;DHT22;890;48.158;11.540;2023-04-09T10:19:17;14.80;55.40
1786;DHT22;890;48.158;11.540;2023-04-09T10:22:04;14.60;54.80
1786;DHT22;890;48.158;11.540;2023-04-09T10:24:33;14.40;54.30
1786;DHT22;890;48.158;11.540;2023-04-09T10:27:13;14.40;55.00
1786;DHT22;890;48.158;11.540;2023-04-09T10:29:47;14.20;55.80
1786;DHT22;890;48.158;11.540;2023-04-09T10:32:21;14.40;55.30
1786;DHT22;890;48.158;11.540;2023-04-09T10:34:48;14.40;55.40
1786;DHT22;890;48.158;11.540;2023-04-09T10:37:22;14.30;54.60
1786;DHT22;890;48.158;11.540;2023-04-09T10:39:49;14.10;55.00
1786;DHT22;890;48.158;11.540;2023-04-09T10:42:22;14.20;54.30
1786;DHT22;890;48.158;11.540;2023-04-09T10:45:13;14.00;54.00
1786;DHT22;890;48.158;11.540;2023-04-09T10:47:40;14.00;53.90
1786;DHT22;890;48.158;11.540;2023-04-09T10:50:26;14.40;54.80
1786;DHT22;890;48.158;11.540;2023-04-09T10:52:54;14.30;53.60
1786;DHT22;890;48.158;11.540;2023-04-09T10:55:39;14.40;53.70
1786;DHT22;890;48.158;11.540;2023-04-09T10:58:06;14.50;53.50
1786;DHT22;890;48.158;11.540;2023-04-09T11:00:37;14.30;53.10
1786;DHT22;890;48.158;11.540;2023-04-09T11:05:49;14.80;57.40
1786;DHT22;890;48.158;11.540;2023-04-09T11:08:15;15.20;57.90
1786;DHT22;890;48.158;11.540;2023-04-09T11:10:42;15.70;57.70
1786;DHT22;890;48.158;11.540;2023-04-09T11:13:16;16.70;60.50
1786;DHT22;890;48.158;11.540;2023-04-09T11:15:43;19.00;59.40
1786;DHT22;890;48.158;11.540;2023-04-09T11:18:13;18.60;59.00
1786;DHT22;890;48.158;11.540;2023-04-09T11:20:39;19.60;58.10
1786;DHT22;890;48.158;11.540;2023-04-09T11:23:05;20.00;56.90
1786;DHT22;890;48.158;11.540;2023-04-09T11:25:32;20.70;56.20
1786;DHT22;890;48.158;11.540;2023-04-09T11:28:01;21.10;50.80
1786;DHT22;890;48.158;11.540;2023-04-09T11:30:27;20.50;47.10
1786;DHT22;890;48.158;11.540;2023-04-09T11:32:53;19.80;45.70
1786;DHT22;890;48.158;11.540;2023-04-09T11:35:21;19.10;45.00
1786;DHT22;890;48.158;11.540;2023-04-09T11:37:47;18.40;44.30
1786;DHT22;890;48.158;11.540;2023-04-09T11:40:19;17.90;44.20
1786;DHT22;890;48.158;11.540;2023-04-09T11:42:47;16.80;44.00
1786;DHT22;890;48.158;11.540;2023-04-09T11:45:14;16.10;43.90
1786;DHT22;890;48.158;11.540;2023-04-09T11:47:41;15.50;44.30
1786;DHT22;890;48.158;11.540;2023-04-09T11:50:08;15.00;44.60
1786;DHT22;890;48.158;11.540;2023-04-09T11:52:35;14.60;44.80
1786;DHT22;890;48.158;11.540;2023-04-09T11:55:02;14.40;45.30
1786;DHT22;890;48.158;11.540;2023-04-09T11:57:45;14.40;45.50
1786;DHT22;890;48.158;11.540;2023-04-09T12:00:12;14.30;45.60
1786;DHT22;890;48.158;11.540;2023-04-09T12:02:40;14.00;45.70
1786;DHT22;890;48.158;11.540;2023-04-09T12:05:08;13.80;46.00
1786;DHT22;890;48.158;11.540;2023-04-09T12:07:33;13.60;46.10
1786;DHT22;890;48.158;11.540;2023-04-09T12:10:09;14.90;47.70
1786;DHT22;890;48.158;11.540;2023-04-09T12:13:09;13.40;47.20
1786;DHT22;890;48.158;11.540;2023-04-09T12:15:36;13.30;47.50
1786;DHT22;890;48.158;11.540;2023-04-09T12:18:06;13.20;47.70
1786;DHT22;890;48.158;11.540;2023-04-09T12:20:39;13.10;47.70
1786;DHT22;890;48.158;11.540;2023-04-09T12:23:06;13.30;48.10
1786;DHT22;890;48.158;11.540;2023-04-09T12:25:36;14.70;49.30
1786;DHT22;890;48.158;11.540;2023-04-09T12:28:13;13.00;48.00
1786;DHT22;890;48.158;11.540;2023-04-09T12:30:43;13.00;48.30
1786;DHT22;890;48.158;11.540;2023-04-09T12:33:08;13.20;48.50
1786;DHT22;890;48.158;11.540;2023-04-09T12:35:34;13.30;48.50
1786;DHT22;890;48.158;11.540;2023-04-09T12:38:02;13.30;48.40
1786;DHT22;890;48.158;11.540;2023-04-09T12:40:29;13.40;48.50
1786;DHT22;890;48.158;11.540;2023-04-09T12:42:55;14.40;49.40
1786;DHT22;890;48.158;11.540;2023-04-09T12:45:21;13.70;48.70
1786;DHT22;890;48.158;11.540;2023-04-09T12:47:47;13.80;48.80
1786;DHT22;890;48.158;11.540;2023-04-09T12:50:13;13.90;49.10
1786;DHT22;890;48.158;11.540;2023-04-09T12:52:40;14.10;49.50
1786;DHT22;890;48.158;11.540;2023-04-09T12:55:06;14.40;50.20
1786;DHT22;890;48.158;11.540;2023-04-09T12:57:32;14.50;50.10
1786;DHT22;890;48.158;11.540;2023-04-09T12:59:59;14.70;49.70
1786;DHT22;890;48.158;11.540;2023-04-09T13:02:24;14.40;49.20
1786;DHT22;890;48.158;11.540;2023-04-09T13:04:50;14.30;49.00
1786;DHT22;890;48.158;11.540;2023-04-09T13:07:17;14.10;49.10
1786;DHT22;890;48.158;11.540;2023-04-09T13:09:46;13.80;49.10
1786;DHT22;890;48.158;11.540;2023-04-09T13:12:16;13.60;49.10
1786;DHT22;890;48.158;11.540;2023-04-09T13:14:45;13.50;49.30
1786;DHT22;890;48.158;11.540;2023-04-09T13:17:10;13.30;49.40
1786;DHT22;890;48.158;11.540;2023-04-09T13:19:36;13.10;49.80
1786;DHT22;890;48.158;11.540;2023-04-09T13:22:02;12.90;50.10
1786;DHT22;890;48.158;11.540;2023-04-09T13:24:27;12.80;50.50
1786;DHT22;890;48.158;11.540;2023-04-09T13:26:53;12.90;50.70
1786;DHT22;890;48.158;11.540;2023-04-09T13:29:18;14.00;51.60
1786;DHT22;890;48.158;11.540;2023-04-09T13:31:44;12.90;50.80
1786;DHT22;890;48.158;11.540;2023-04-09T13:34:10;12.90;50.70
1786;DHT22;890;48.158;11.540;2023-04-09T13:36:35;12.90;50.80
1786;DHT22;890;48.158;11.540;2023-04-09T13:39:01;12.80;51.10
1786;DHT22;890;48.158;11.540;2023-04-09T13:41:31;14.20;52.50
1786;DHT22;890;48.158;11.540;2023-04-09T13:43:57;13.00;51.60
1786;DHT22;890;48.158;11.540;2023-04-09T13:46:23;13.20;51.60
1786;DHT22;890;48.158;11.540;2023-04-09T13:48:49;13.30;51.60
1786;DHT22;890;48.158;11.540;2023-04-09T13:51:14;13.40;51.60
1786;DHT22;890;48.158;11.540;2023-04-09T13:53:40;13.60;51.40
1786;DHT22;890;48.158;11.540;2023-04-09T13:56:06;13.50;51.00
1786;DHT22;890;48.158;11.540;2023-04-09T13:58:31;13.20;50.90
1786;DHT22;890;48.158;11.540;2023-04-09T14:00:57;12.90;50.80
1786;DHT22;890;48.158;11.540;2023-04-09T14:03:23;12.90;51.40
1786;DHT22;890;48.158;11.540;2023-04-09T14:05:48;12.90;51.60
1786;DHT22;890;48.158;11.540;2023-04-09T14:08:15;12.80;51.70
1786;DHT22;890;48.158;11.540;2023-04-09T14:10:40;15.30;54.00
1786;DHT22;890;48.158;11.540;2023-04-09T14:13:06;13.10;52.40
1786;DHT22;890;48.158;11.540;2023-04-09T14:15:35;13.10;52.30
1786;DHT22;890;48.158;11.540;2023-04-09T14:18:01;13.10;52.00
1786;DHT22;890;48.158;11.540;2023-04-09T14:20:27;13.00;51.80
1786;DHT22;890;48.158;11.540;2023-04-09T14:22:53;12.90;51.00
1786;DHT22;890;48.158;11.540;2023-04-09T14:25:18;12.90;51.40
1786;DHT22;890;48.158;11.540;2023-04-09T14:27:44;12.80;51.30
1786;DHT22;890;48.158;11.540;2023-04-09T14:30:10;12.80;51.70
1786;DHT22;890;48.158;11.540;2023-04-09T14:32:36;12.90;51.90
1786;DHT22;890;48.158;11.540;2023-04-09T14:35:02;12.90;51.80
1786;DHT22;890;48.158;11.540;2023-04-09T14:37:27;12.90;51.80
1786;DHT22;890;48.158;11.540;2023-04-09T14:39:53;12.70;51.50
1786;DHT22;890;48.158;11.540;2023-04-09T14:42:18;14.00;52.70
1786;DHT22;890;48.158;11.540;2023-04-09T14:44:44;12.50;52.40
1786;DHT22;890;48.158;11.540;2023-04-09T14:47:10;12.60;52.00
1786;DHT22;890;48.158;11.540;2023-04-09T14:49:36;12.70;52.20
1786;DHT22;890;48.158;11.540;2023-04-09T14:52:02;12.80;52.20
1786;DHT22;890;48.158;11.540;2023-04-09T14:54:28;12.90;52.10
1786;DHT22;890;48.158;11.540;2023-04-09T14:56:55;13.10;52.10
1786;DHT22;890;48.158;11.540;2023-04-09T14:59:22;13.00;51.80
1786;DHT22;890;48.158;11.540;2023-04-09T15:01:48;12.90;51.70
1786;DHT22;890;48.158;11.540;2023-04-09T15:04:14;13.20;52.20
1786;DHT22;890;48.158;11.540;2023-04-09T15:06:40;12.60;51.90
1786;DHT22;890;48.158;11.540;2023-04-09T15:09:06;12.90;52.60
1786;DHT22;890;48.158;11.540;2023-04-09T15:11:31;12.20;52.50
1786;DHT22;890;48.158;11.540;2023-04-09T15:13:57;12.00;52.70
1786;DHT22;890;48.158;11.540;2023-04-09T15:16:24;11.80;52.30
1786;DHT22;890;48.158;11.540;2023-04-09T15:18:51;11.90;53.50
1786;DHT22;890;48.158;11.540;2023-04-09T15:21:17;11.90;53.40
1786;DHT22;890;48.158;11.540;2023-04-09T15:23:43;12.00;53.60
1786;DHT22;890;48.158;11.540;2023-04-09T15:26:08;12.00;53.30
1786;DHT22;890;48.158;11.540;2023-04-09T15:28:34;12.10;53.30
1786;DHT22;890;48.158;11.540;2023-04-09T15:30:59;12.10;53.10
1786;DHT22;890;48.158;11.540;2023-04-09T15:33:25;11.80;52.30
1786;DHT22;890;48.158;11.540;2023-04-09T15:35:52;11.70;52.30
1786;DHT22;890;48.158;11.540;2023-04-09T15:38:18;11.80;52.40
1786;DHT22;890;48.158;11.540;2023-04-09T15:40:46;11.80;52.50
1786;DHT22;890;48.158;11.540;2023-04-09T15:43:11;11.90;52.80
1786;DHT22;890;48.158;11.540;2023-04-09T15:45:37;11.90;53.30
1786;DHT22;890;48.158;11.540;2023-04-09T15:48:03;12.00;53.00
1786;DHT22;890;48.158;11.540;2023-04-09T15:50:29;11.90;52.00
1786;DHT22;890;48.158;11.540;2023-04-09T15:52:55;11.80;51.90
1786;DHT22;890;48.158;11.540;2023-04-09T15:55:21;11.70;51.80
1786;DHT22;890;48.158;11.540;2023-04-09T15:57:47;11.80;52.40
1786;DHT22;890;48.158;11.540;2023-04-09T16:00:13;11.80;52.40
1786;DHT22;890;48.158;11.540;2023-04-09T16:02:40;11.50;51.90
1786;DHT22;890;48.158;11.540;2023-04-09T16:05:06;11.50;51.90
1786;DHT22;890;48.158;11.540;2023-04-09T16:07:32;11.50;52.10
1786;DHT22;890;48.158;11.540;2023-04-09T16:09:58;11.40;52.00
1786;DHT22;890;48.158;11.540;2023-04-09T16:12:24;11.50;52.80
1786;DHT22;890;48.158;11.540;2023-04-09T16:14:50;11.50;52.80
1786;DHT22;890;48.158;11.540;2023-04-09T16:17:15;11.50;53.00
1786;DHT22;890;48.158;11.540;2023-04-09T16:19:41;11.60;53.00